Aviation Digital Data Service (ADDS)

Output produced by METARs form (1320 UTC 10 July 2020)
found at http://www.aviationweather.gov/metar/data/
 
KCSG 101251Z 00000KT 10SM CLR 27/23 A2996 RMK AO2 SLP140 T02720233
KCSG 101127Z 1012/1112 00000KT P6SM FEW080 BKN100 
     FM101600 31005KT P6SM SCT050 
     FM110000 31006KT P6SM FEW050 
     FM110200 30004KT P6SM SKC